createdAt,value
2022-10-20T00:00:57.386Z,6.10
2022-10-20T00:03:25.443Z,4.80
2022-10-20T00:05:53.326Z,5.70
2022-10-20T00:08:21.238Z,5.10
2022-10-20T00:10:55.349Z,5.53
2022-10-20T00:13:23.155Z,5.20
2022-10-20T00:15:51.310Z,6.47
2022-10-20T00:18:18.866Z,9.02
2022-10-20T00:20:46.870Z,9.52
2022-10-20T00:23:14.479Z,8.68
2022-10-20T00:25:42.106Z,8.18
2022-10-20T00:28:10.947Z,8.05
2022-10-20T00:30:38.442Z,7.63
2022-10-20T00:33:06.442Z,8.45
2022-10-20T00:35:38.130Z,7.53
2022-10-20T00:38:05.763Z,6.55
2022-10-20T00:40:33.355Z,6.35
2022-10-20T00:43:00.833Z,6.32
2022-10-20T00:45:29.662Z,5.90
2022-10-20T00:48:01.536Z,6.25
2022-10-20T00:50:33.215Z,5.90
2022-10-20T00:53:02.518Z,6.25
2022-10-20T00:55:33.233Z,5.68
2022-10-20T00:58:02.311Z,6.53
2022-10-20T01:00:31.842Z,5.80
2022-10-20T01:03:02.657Z,6.18
2022-10-20T01:05:30.167Z,6.05
2022-10-20T01:07:57.621Z,6.03
2022-10-20T01:10:27.833Z,6.40
2022-10-20T01:13:03.935Z,5.75
2022-10-20T01:15:39.506Z,6.00
2022-10-20T01:18:13.414Z,5.88
2022-10-20T01:21:04.826Z,6.13
2022-10-20T01:23:50.253Z,5.70
2022-10-20T01:26:48.489Z,5.63
2022-10-20T01:29:25.783Z,6.03
2022-10-20T01:32:04.870Z,6.00
2022-10-20T01:34:37.213Z,5.90
2022-10-20T01:37:08.696Z,5.97
2022-10-20T01:39:43.803Z,6.50
2022-10-20T01:42:18.058Z,7.70
2022-10-20T01:44:49.003Z,6.50
2022-10-20T01:47:17.946Z,6.20
2022-10-20T01:49:48.490Z,6.65
2022-10-20T01:52:17.007Z,6.05
2022-10-20T01:54:44.581Z,6.20
2022-10-20T01:57:30.084Z,7.30
2022-10-20T02:00:07.095Z,6.63
2022-10-20T02:02:57.417Z,6.45
2022-10-20T02:05:38.869Z,6.47
2022-10-20T02:08:13.414Z,7.05
2022-10-20T02:10:46.589Z,7.38
2022-10-20T02:13:15.758Z,7.20
2022-10-20T02:15:48.069Z,7.03
2022-10-20T02:18:19.986Z,6.35
2022-10-20T02:20:51.389Z,6.57
2022-10-20T02:23:19.407Z,6.55
2022-10-20T02:25:49.420Z,6.75
2022-10-20T02:28:18.128Z,6.95
2022-10-20T02:30:48.522Z,7.50
2022-10-20T02:33:17.720Z,6.38
2022-10-20T02:35:52.235Z,6.47
2022-10-20T02:38:19.717Z,6.90
2022-10-20T02:40:47.511Z,6.55
2022-10-20T02:43:15.012Z,7.03
2022-10-20T02:45:42.536Z,6.40
2022-10-20T02:48:11.422Z,6.90
2022-10-20T02:50:39.613Z,6.28
2022-10-20T02:53:07.423Z,7.13
2022-10-20T02:55:34.923Z,7.35
2022-10-20T02:58:02.396Z,7.03
2022-10-20T03:00:31.123Z,6.80
2022-10-20T03:02:58.614Z,7.35
2022-10-20T03:05:28.014Z,7.47
2022-10-20T03:07:55.507Z,6.63
2022-10-20T03:10:23.005Z,6.75
2022-10-20T03:12:50.577Z,7.30
2022-10-20T03:15:18.224Z,7.22
2022-10-20T03:17:45.734Z,6.72
2022-10-20T03:20:13.232Z,6.22
2022-10-20T03:22:42.034Z,6.30
2022-10-20T03:25:09.740Z,6.18
2022-10-20T03:27:37.531Z,6.03
2022-10-20T03:30:06.024Z,6.05
2022-10-20T03:32:33.797Z,5.78
2022-10-20T03:35:01.460Z,5.68
2022-10-20T03:37:28.925Z,6.28
2022-10-20T03:39:57.737Z,5.88
2022-10-20T03:42:25.298Z,6.80
2022-10-20T03:44:52.758Z,5.70
2022-10-20T03:47:20.294Z,5.60
2022-10-20T03:49:47.758Z,5.47
2022-10-20T03:52:15.233Z,6.40
2022-10-20T03:54:42.692Z,6.38
2022-10-20T03:57:11.517Z,6.35
2022-10-20T03:59:38.964Z,6.43
2022-10-20T04:02:06.626Z,6.25
2022-10-20T04:04:34.186Z,6.70
2022-10-20T04:07:01.648Z,6.10
2022-10-20T04:09:29.135Z,6.28
2022-10-20T04:11:56.643Z,5.38
2022-10-20T04:14:27.732Z,5.60
2022-10-20T04:16:55.197Z,5.22
2022-10-20T04:19:22.693Z,5.90
2022-10-20T04:21:50.181Z,5.20
2022-10-20T04:24:17.683Z,5.53
2022-10-20T04:26:45.172Z,5.72
2022-10-20T04:29:12.745Z,6.15
2022-10-20T04:31:45.240Z,5.57
2022-10-20T04:34:14.368Z,5.10
2022-10-20T04:36:41.884Z,5.72
2022-10-20T04:39:09.935Z,5.07
2022-10-20T04:41:37.429Z,5.35
2022-10-20T04:44:05.200Z,4.97
2022-10-20T04:46:32.733Z,4.88
2022-10-20T04:49:01.630Z,5.03
2022-10-20T04:51:29.145Z,4.53
2022-10-20T04:53:56.661Z,5.57
2022-10-20T04:56:24.366Z,5.18
2022-10-20T04:58:52.941Z,5.07
2022-10-20T05:01:21.805Z,5.18
2022-10-20T05:03:49.416Z,4.90
2022-10-20T05:06:20.490Z,4.72
2022-10-20T05:08:51.606Z,4.20
2022-10-20T05:11:20.826Z,4.68
2022-10-20T05:13:48.353Z,4.85
2022-10-20T05:16:17.385Z,4.50
2022-10-20T05:18:45.952Z,4.70
2022-10-20T05:21:15.406Z,4.60
2022-10-20T05:23:45.089Z,4.40
2022-10-20T05:26:14.263Z,4.72
2022-10-20T05:28:45.062Z,4.95
2022-10-20T05:31:12.598Z,5.25
2022-10-20T05:33:44.285Z,5.82
2022-10-20T05:36:15.880Z,5.90
2022-10-20T05:38:47.246Z,5.35
2022-10-20T05:41:16.388Z,5.30
2022-10-20T05:43:43.893Z,5.10
2022-10-20T05:46:11.373Z,5.25
2022-10-20T05:48:42.929Z,5.10
2022-10-20T05:51:14.700Z,5.10
2022-10-20T05:53:42.914Z,5.18
2022-10-20T05:56:13.891Z,5.13
2022-10-20T05:58:43.126Z,5.75
2022-10-20T06:01:16.948Z,5.25
2022-10-20T06:03:47.513Z,5.05
2022-10-20T06:06:14.993Z,5.38
2022-10-20T06:08:42.544Z,5.57
2022-10-20T06:11:14.314Z,5.35
2022-10-20T06:13:42.348Z,4.45
2022-10-20T06:16:11.811Z,4.65
2022-10-20T06:18:39.593Z,5.80
2022-10-20T06:21:08.995Z,5.47
2022-10-20T06:23:36.487Z,5.15
2022-10-20T06:26:05.405Z,5.30
2022-10-20T06:28:36.454Z,5.32
2022-10-20T06:31:11.822Z,6.10
2022-10-20T06:33:39.761Z,5.68
2022-10-20T06:36:07.733Z,5.28
2022-10-20T06:38:35.411Z,5.85
2022-10-20T06:41:03.187Z,5.55
2022-10-20T06:43:30.737Z,5.30
2022-10-20T06:46:02.130Z,6.40
2022-10-20T06:48:29.658Z,5.90
2022-10-20T06:50:57.839Z,5.60
2022-10-20T06:53:26.148Z,5.32
2022-10-20T06:55:58.185Z,5.97
2022-10-20T06:58:25.842Z,5.32
2022-10-20T07:01:02.646Z,5.25
2022-10-20T07:03:33.667Z,5.70
2022-10-20T07:06:01.713Z,5.60
2022-10-20T07:08:30.340Z,5.82
2022-10-20T07:11:02.114Z,6.28
2022-10-20T07:13:30.588Z,5.57
2022-10-20T07:15:59.083Z,5.43
2022-10-20T07:18:30.090Z,5.45
2022-10-20T07:20:58.874Z,6.18
2022-10-20T07:23:26.596Z,5.38
2022-10-20T07:26:00.745Z,5.90
2022-10-20T07:28:28.210Z,5.68
2022-10-20T07:30:55.756Z,5.68
2022-10-20T07:33:23.493Z,6.20
2022-10-20T07:35:52.337Z,6.53
2022-10-20T07:38:19.864Z,5.88
2022-10-20T07:40:47.343Z,5.78
2022-10-20T07:43:14.883Z,5.20
2022-10-20T07:45:42.420Z,6.10
2022-10-20T07:48:10.605Z,5.63
2022-10-20T07:50:40.148Z,6.30
2022-10-20T07:53:08.988Z,6.13
2022-10-20T07:55:38.960Z,6.20
2022-10-20T07:58:06.914Z,6.50
2022-10-20T08:00:34.461Z,7.07
2022-10-20T08:03:01.982Z,6.47
2022-10-20T08:05:29.732Z,6.35
2022-10-20T08:07:58.262Z,5.95
2022-10-20T08:10:27.360Z,6.18
2022-10-20T08:12:54.845Z,6.35
2022-10-20T08:15:25.203Z,5.63
2022-10-20T08:17:52.727Z,5.70
2022-10-20T08:20:22.404Z,6.18
2022-10-20T08:22:52.444Z,6.10
2022-10-20T08:25:20.290Z,6.47
2022-10-20T08:27:49.204Z,5.80
2022-10-20T08:30:23.723Z,5.97
2022-10-20T08:32:52.118Z,5.50
2022-10-20T08:35:19.693Z,5.68
2022-10-20T08:37:47.206Z,5.97
2022-10-20T08:40:18.702Z,6.00
2022-10-20T08:42:47.657Z,6.00
2022-10-20T08:45:18.238Z,4.95
2022-10-20T08:47:48.214Z,6.03
2022-10-20T08:50:18.838Z,5.68
2022-10-20T08:52:48.215Z,5.93
2022-10-20T08:55:25.631Z,5.82
2022-10-20T08:57:53.114Z,5.70
2022-10-20T09:00:24.142Z,6.78
2022-10-20T09:02:52.301Z,5.32
2022-10-20T09:05:24.038Z,5.90
2022-10-20T09:07:52.229Z,6.20
2022-10-20T09:10:29.194Z,5.97
2022-10-20T09:12:57.213Z,6.10
2022-10-20T09:15:27.344Z,6.60
2022-10-20T09:17:57.794Z,7.45
2022-10-20T09:20:28.360Z,10.85
2022-10-20T09:22:55.955Z,6.40
2022-10-20T09:25:27.283Z,6.47
2022-10-20T09:27:56.444Z,5.80
2022-10-20T09:30:34.224Z,6.40
2022-10-20T09:33:20.562Z,6.15
2022-10-20T09:35:49.502Z,6.45
2022-10-20T09:38:19.678Z,6.30
2022-10-20T09:40:58.015Z,5.75
2022-10-20T09:43:27.867Z,6.07
2022-10-20T09:46:01.552Z,5.95
2022-10-20T09:48:32.672Z,6.05
2022-10-20T09:51:01.750Z,6.18
2022-10-20T09:53:33.318Z,6.05
2022-10-20T09:56:01.070Z,6.40
2022-10-20T09:58:31.197Z,6.40
2022-10-20T10:01:06.585Z,6.03
2022-10-20T10:03:40.472Z,6.60
2022-10-20T10:06:22.366Z,5.95
2022-10-20T10:08:49.899Z,6.03
2022-10-20T10:11:20.422Z,6.93
2022-10-20T10:13:50.694Z,6.50
2022-10-20T10:16:21.672Z,5.95
2022-10-20T10:18:57.466Z,6.88
2022-10-20T10:21:25.393Z,6.22
2022-10-20T10:23:55.606Z,6.32
2022-10-20T10:26:45.033Z,6.20
2022-10-20T10:29:24.281Z,6.28
2022-10-20T10:31:58.782Z,6.70
2022-10-20T10:35:01.023Z,5.65
2022-10-20T10:37:32.333Z,5.70
2022-10-20T10:40:03.455Z,6.18
2022-10-20T10:42:55.081Z,7.50
2022-10-20T10:45:41.152Z,5.82
2022-10-20T10:48:45.547Z,6.38
2022-10-20T10:51:26.403Z,5.85
2022-10-20T10:54:11.602Z,6.25
2022-10-20T10:56:44.980Z,7.03
2022-10-20T10:59:18.854Z,6.03
2022-10-20T11:02:10.343Z,5.85
2022-10-20T11:04:58.117Z,7.40
2022-10-20T11:07:33.947Z,6.72
2022-10-20T11:10:11.686Z,6.53
2022-10-20T11:12:53.530Z,6.63
2022-10-20T11:15:35.619Z,6.10
2022-10-20T11:18:10.257Z,6.60
2022-10-20T11:20:48.234Z,7.63
2022-10-20T11:23:45.466Z,7.80
2022-10-20T11:26:23.143Z,6.72
2022-10-20T11:28:55.590Z,6.78
2022-10-20T11:31:27.599Z,6.78
2022-10-20T11:34:01.302Z,7.32
2022-10-20T11:36:36.806Z,7.07
2022-10-20T11:39:06.624Z,7.20
2022-10-20T11:46:46.880Z,7.10
2022-10-20T11:49:14.589Z,6.45
2022-10-20T11:52:09.276Z,6.35
2022-10-20T11:54:49.036Z,6.35
2022-10-20T11:57:29.347Z,7.57
2022-10-20T12:00:11.614Z,7.07
2022-10-20T12:03:10.992Z,7.82
2022-10-20T12:06:11.005Z,7.82
2022-10-20T12:09:06.384Z,6.88
2022-10-20T12:11:42.866Z,6.72
2022-10-20T12:14:20.912Z,7.20
2022-10-20T12:17:13.648Z,7.75
2022-10-20T12:19:41.793Z,7.55
2022-10-20T12:22:41.617Z,7.15
2022-10-20T12:25:36.009Z,7.45
2022-10-20T12:28:40.553Z,7.65
2022-10-20T12:31:08.272Z,7.70
2022-10-20T12:33:39.029Z,7.40
2022-10-20T12:36:30.220Z,7.38
2022-10-20T12:39:15.885Z,7.68
2022-10-20T12:41:57.117Z,7.13
2022-10-20T12:44:25.389Z,7.88
2022-10-20T12:46:56.004Z,8.35
2022-10-20T12:49:29.283Z,8.63
2022-10-20T12:51:59.716Z,7.88
2022-10-20T12:54:34.495Z,7.68
2022-10-20T12:57:06.948Z,7.85
2022-10-20T12:59:38.880Z,7.65
2022-10-20T13:02:44.080Z,8.35
2022-10-20T13:05:48.916Z,7.78
2022-10-20T13:08:29.425Z,8.70
2022-10-20T13:11:18.075Z,8.73
2022-10-20T13:14:05.672Z,8.73
2022-10-20T13:16:34.922Z,9.05
2022-10-20T13:19:02.827Z,9.15
2022-10-20T13:21:35.077Z,8.15
2022-10-20T13:24:16.137Z,7.95
2022-10-20T13:26:50.185Z,9.25
2022-10-20T13:29:25.474Z,8.35
2022-10-20T13:32:05.855Z,8.38
2022-10-20T13:34:41.982Z,8.32
2022-10-20T13:37:23.684Z,8.35
2022-10-20T13:40:00.366Z,8.55
2022-10-20T13:42:42.969Z,7.57
2022-10-20T13:45:22.697Z,8.52
2022-10-20T13:47:52.989Z,8.23
2022-10-20T13:50:24.397Z,8.18
2022-10-20T13:52:55.901Z,8.15
2022-10-20T13:55:26.034Z,7.95
2022-10-20T13:57:56.876Z,8.57
2022-10-20T14:00:29.015Z,8.75
2022-10-20T14:03:00.156Z,8.68
2022-10-20T14:05:29.286Z,8.45
2022-10-20T14:07:57.182Z,8.52
2022-10-20T14:10:29.958Z,8.30
2022-10-20T14:12:58.045Z,8.95
2022-10-20T14:15:31.499Z,7.82
2022-10-20T14:18:01.204Z,8.38
2022-10-20T14:20:29.781Z,9.18
2022-10-20T14:22:59.277Z,8.70
2022-10-20T14:25:27.829Z,8.85
2022-10-20T14:27:56.697Z,9.57
2022-10-20T14:30:26.506Z,8.18
2022-10-20T14:32:55.770Z,8.15
2022-10-20T14:35:39.853Z,7.97
2022-10-20T14:38:17.030Z,8.68
2022-10-20T14:40:51.657Z,7.38
2022-10-20T14:43:22.005Z,7.95
2022-10-20T14:45:55.110Z,8.20
2022-10-20T14:48:25.292Z,8.25
2022-10-20T14:50:54.969Z,8.27
2022-10-20T14:53:34.457Z,7.88
2022-10-20T14:56:03.650Z,7.70
2022-10-20T14:58:39.414Z,8.85
2022-10-20T15:01:22.658Z,7.95
2022-10-20T15:04:14.346Z,8.25
2022-10-20T15:06:42.253Z,8.70
2022-10-20T15:09:18.936Z,7.30
2022-10-20T15:11:46.715Z,7.28
2022-10-20T15:14:17.078Z,7.93
2022-10-20T15:16:46.160Z,6.95
2022-10-20T15:19:28.845Z,7.45
2022-10-20T15:22:02.890Z,7.43
2022-10-20T15:24:30.497Z,7.57
2022-10-20T15:26:58.609Z,8.15
2022-10-20T15:29:27.063Z,8.05
2022-10-20T15:31:54.761Z,8.02
2022-10-20T15:34:23.938Z,8.10
2022-10-20T15:36:51.438Z,8.02
2022-10-20T15:39:18.952Z,7.40
2022-10-20T15:41:49.018Z,7.93
2022-10-20T15:44:21.938Z,7.78
2022-10-20T15:46:52.213Z,8.05
2022-10-20T15:49:19.904Z,7.85
2022-10-20T15:51:50.367Z,8.18
2022-10-20T15:54:21.286Z,8.10
2022-10-20T15:56:49.104Z,7.60
2022-10-20T15:59:16.593Z,7.70
2022-10-20T16:01:44.045Z,7.45
2022-10-20T16:04:18.456Z,8.10
2022-10-20T16:06:46.028Z,8.82
2022-10-20T16:09:16.142Z,8.88
2022-10-20T16:11:44.092Z,8.75
2022-10-20T16:14:11.785Z,9.48
2022-10-20T16:16:39.448Z,10.15
2022-10-20T16:19:06.969Z,9.10
2022-10-20T16:21:34.809Z,9.88
2022-10-20T16:24:02.354Z,10.02
2022-10-20T16:26:31.187Z,10.10
2022-10-20T16:28:58.722Z,9.25
2022-10-20T16:31:26.356Z,9.73
2022-10-20T16:33:53.840Z,9.18
2022-10-20T16:36:21.720Z,9.77
2022-10-20T16:38:49.283Z,10.18
2022-10-20T16:41:18.117Z,9.15
2022-10-20T16:43:47.279Z,9.82
2022-10-20T16:46:16.112Z,9.60
2022-10-20T16:48:47.740Z,8.48
2022-10-20T16:51:17.615Z,8.73
2022-10-20T16:53:45.696Z,10.07
2022-10-20T16:56:16.661Z,9.75
2022-10-20T16:58:49.262Z,10.63
2022-10-20T17:01:18.387Z,10.02
2022-10-20T17:03:47.665Z,9.57
2022-10-20T17:06:16.612Z,9.48
2022-10-20T17:08:44.363Z,10.10
2022-10-20T17:11:14.134Z,9.65
2022-10-20T17:13:42.405Z,9.23
2022-10-20T17:16:13.564Z,9.18
2022-10-20T17:18:41.120Z,10.40
2022-10-20T17:21:09.155Z,9.48
2022-10-20T17:23:41.646Z,9.40
2022-10-20T17:26:12.722Z,10.68
2022-10-20T17:28:40.212Z,10.60
2022-10-20T17:31:08.945Z,8.85
2022-10-20T17:33:39.087Z,8.68
2022-10-20T17:36:07.754Z,9.35
2022-10-20T17:38:36.413Z,10.23
2022-10-20T17:41:04.809Z,9.55
2022-10-20T17:43:33.037Z,7.85
2022-10-20T17:46:02.367Z,8.70
2022-10-20T17:48:30.436Z,8.65
2022-10-20T17:51:04.417Z,9.05
2022-10-20T17:53:33.158Z,9.30
2022-10-20T17:56:07.449Z,9.07
2022-10-20T17:58:35.521Z,8.43
2022-10-20T18:01:10.477Z,8.73
2022-10-20T18:03:38.709Z,8.85
2022-10-20T18:06:13.402Z,8.90
2022-10-20T18:08:41.558Z,8.40
2022-10-20T18:11:10.584Z,8.68
2022-10-20T18:13:38.715Z,9.07
2022-10-20T18:16:08.361Z,8.65
2022-10-20T18:18:36.154Z,9.30
2022-10-20T18:21:04.759Z,8.95
2022-10-20T18:23:36.073Z,9.30
2022-10-20T18:26:08.423Z,8.40
2022-10-20T18:28:36.536Z,8.45
2022-10-20T18:31:08.108Z,8.43
2022-10-20T18:33:35.608Z,8.93
2022-10-20T18:36:04.316Z,8.80
2022-10-20T18:38:36.372Z,8.73
2022-10-20T18:41:07.936Z,7.78
2022-10-20T18:43:35.590Z,9.02
2022-10-20T18:46:04.281Z,8.55
2022-10-20T18:48:32.426Z,8.60
2022-10-20T18:51:01.677Z,7.80
2022-10-20T18:53:30.490Z,8.00
2022-10-20T18:56:04.075Z,8.85
2022-10-20T18:58:33.143Z,8.07
2022-10-20T19:01:02.224Z,8.80
2022-10-20T19:03:31.398Z,8.73
2022-10-20T19:06:00.070Z,7.93
2022-10-20T19:08:27.734Z,8.95
2022-10-20T19:10:55.250Z,7.57
2022-10-20T19:13:25.757Z,7.78
2022-10-20T19:15:53.850Z,8.23
2022-10-20T19:18:21.778Z,7.95
2022-10-20T19:20:56.198Z,8.23
2022-10-20T19:23:24.135Z,7.90
2022-10-20T19:26:03.544Z,8.38
2022-10-20T19:28:34.317Z,8.35
2022-10-20T19:31:02.422Z,7.70
2022-10-20T19:33:30.392Z,7.85
2022-10-20T19:35:57.896Z,7.75
2022-10-20T19:38:25.367Z,8.02
2022-10-20T19:40:54.355Z,7.50
2022-10-20T19:43:21.833Z,8.10
2022-10-20T19:45:50.602Z,7.32
2022-10-20T19:48:19.827Z,6.78
2022-10-20T19:50:47.370Z,7.10
2022-10-20T19:53:14.849Z,7.80
2022-10-20T19:55:42.316Z,7.15
2022-10-20T20:00:43.984Z,6.20
2022-10-20T20:03:12.921Z,6.70
2022-10-20T20:05:40.403Z,6.88
2022-10-20T20:08:08.278Z,6.95
2022-10-20T20:10:36.417Z,7.47
2022-10-20T20:13:04.533Z,6.93
2022-10-20T20:15:32.234Z,6.18
2022-10-20T20:17:59.699Z,6.53
2022-10-20T20:20:28.550Z,6.32
2022-10-20T20:22:55.998Z,6.03
2022-10-20T20:25:23.465Z,6.03
2022-10-20T20:27:50.920Z,5.57
2022-10-20T20:30:18.456Z,5.38
2022-10-20T20:32:47.802Z,6.10
2022-10-20T20:35:18.329Z,4.95
2022-10-20T20:37:47.145Z,5.50
2022-10-20T20:40:14.837Z,5.70
2022-10-20T20:42:42.288Z,5.00
2022-10-20T20:45:10.964Z,5.05
2022-10-20T20:47:38.800Z,5.85
2022-10-20T20:50:07.554Z,5.50
2022-10-20T20:52:35.057Z,6.05
2022-10-20T20:55:04.175Z,6.38
2022-10-20T20:57:31.628Z,5.82
2022-10-20T20:59:59.114Z,5.53
2022-10-20T21:02:26.554Z,6.30
2022-10-20T21:04:54.022Z,6.10
2022-10-20T21:07:21.499Z,6.10
2022-10-20T21:09:49.492Z,5.57
2022-10-20T21:12:18.306Z,5.72
2022-10-20T21:14:48.192Z,6.00
2022-10-20T21:17:15.659Z,5.63
2022-10-20T21:19:43.157Z,6.68
2022-10-20T21:22:10.874Z,6.32
2022-10-20T21:24:38.519Z,6.47
2022-10-20T21:27:06.346Z,6.57
2022-10-20T21:29:35.168Z,6.50
2022-10-20T21:32:02.654Z,6.07
2022-10-20T21:34:30.301Z,6.28
2022-10-20T21:36:57.775Z,5.90
2022-10-20T21:39:25.518Z,5.90
2022-10-20T21:41:55.959Z,6.05
2022-10-20T21:44:26.281Z,5.70
2022-10-20T21:46:59.976Z,6.32
2022-10-20T21:49:29.654Z,5.95
2022-10-20T21:52:00.649Z,6.53
2022-10-20T21:54:29.772Z,6.53
2022-10-20T21:56:59.531Z,6.13
2022-10-20T21:59:30.589Z,5.88
2022-10-20T22:02:00.801Z,6.13
2022-10-20T22:04:30.034Z,6.40
2022-10-20T22:06:59.160Z,6.25
2022-10-20T22:09:29.177Z,7.03
2022-10-20T22:11:58.869Z,6.28
2022-10-20T22:14:30.304Z,5.95
2022-10-20T22:16:59.780Z,6.78
2022-10-20T22:19:27.496Z,6.68
2022-10-20T22:21:55.327Z,6.78
2022-10-20T22:24:23.297Z,6.00
2022-10-20T22:26:54.869Z,6.57
2022-10-20T22:29:25.332Z,6.72
2022-10-20T22:31:52.801Z,6.80
2022-10-20T22:34:21.765Z,7.60
2022-10-20T22:36:49.225Z,7.05
2022-10-20T22:39:19.595Z,7.40
2022-10-20T22:41:47.081Z,7.18
2022-10-20T22:44:14.621Z,6.68
2022-10-20T22:46:42.084Z,7.25
2022-10-20T22:49:11.989Z,6.65
2022-10-20T22:51:43.389Z,6.93
2022-10-20T22:54:13.874Z,7.43
2022-10-20T22:56:41.349Z,6.38
2022-10-20T22:59:11.005Z,6.32
2022-10-20T23:01:38.490Z,6.47
2022-10-20T23:04:06.247Z,6.38
2022-10-20T23:06:34.948Z,7.25
2022-10-20T23:09:06.947Z,6.88
2022-10-20T23:11:36.774Z,7.03
2022-10-20T23:14:07.016Z,8.35
2022-10-20T23:16:34.533Z,7.80
2022-10-20T23:19:02.091Z,9.57
2022-10-20T23:21:32.596Z,8.70
2022-10-20T23:24:00.186Z,8.57
2022-10-20T23:26:31.913Z,9.13
2022-10-20T23:29:02.214Z,9.60
2022-10-20T23:31:32.774Z,8.52
2022-10-20T23:34:00.262Z,8.52
2022-10-20T23:36:27.784Z,9.40
2022-10-20T23:38:55.260Z,9.38
2022-10-20T23:41:22.845Z,8.82
2022-10-20T23:43:51.910Z,10.23
2022-10-20T23:46:19.384Z,9.43
2022-10-20T23:48:49.253Z,9.52
2022-10-20T23:51:18.455Z,9.45
2022-10-20T23:53:45.906Z,10.43
2022-10-20T23:56:13.368Z,10.25
2022-10-20T23:58:43.276Z,11.18
